Blue Star 1 — SWET — position and weather

sailwx.info

Track history (hours):
 
Tides and Currents Weather Stations Pressure Air Temp Water Temp Dewpoint Dewpoint Depression Visibility Wind Speed Wind Dir Waves Ship Positions

Blue Star 1

Last reported at 2015-Jul-07 16:14 UTC. Time now 2015-Jul-08 02:15 UTC.
Position N 37°48' E 026°33'.

Length 176 m; draft 6.5 m.

Type: Passenger vessel. MMSI: 239710000.

Date/timePositionNaut miles runAvg speedWind from/ knotsBaromVisibWave heightAir tempDewpointWater temp
2015-Jul-07 16:14N 37°48' E 026°33'1825.6
2015-Jul-07 15:33N 37°44' E 026°12'2525.9
2015-Jul-07 14:34N 37°37' E 025°41'2525.3
2015-Jul-07 13:34N 37°30' E 025°10'5725.1
2015-Jul-07 11:17N 37°35' E 023°58'1825.0
2015-Jul-07 10:34N 37°45' E 023°39'1111.5
2015-Jul-07 09:33N 37°56' E 023°38'0 0.0
2015-Jul-07 08:33N 37°56' E 023°38'0 0.0
2015-Jul-07 07:33N 37°56' E 023°38'0 0.0
2015-Jul-07 06:33N 37°56' E 023°38'0 0.0
2015-Jul-07 05:33N 37°56' E 023°38'0 0.0
2015-Jul-07 04:33N 37°56' E 023°38'0 0.0
2015-Jul-07 03:33N 37°56' E 023°38'9 8.7
2015-Jul-07 02:33N 37°48' E 023°41'2120.5
2015-Jul-07 01:32N 37°38' E 024°04'3 0.1
2015-Jul-05 19:32N 37°37' E 024°01'2020.9
2015-Jul-05 18:33N 37°47' E 023°38'10 9.6
2015-Jul-05 17:34N 37°56' E 023°38'0 0.0
2015-Jul-05 16:33N 37°56' E 023°38'5 4.6
2015-Jul-05 15:33N 37°52' E 023°39'2722.9
2015-Jul-05 14:24N 37°38' E 024°07'9 0.5
2015-Jul-04 19:19N 37°38' E 023°56'1823.4
2015-Jul-04 18:33N 37°48' E 023°38'8 8.2
2015-Jul-04 17:33N 37°56' E 023°38'0 0.0
2015-Jul-04 16:33N 37°56' E 023°38'0 0.0
2015-Jul-04 15:33N 37°56' E 023°38'7 6.8
2015-Jul-04 14:33N 37°50' E 023°40'2523.2
2015-Jul-04 13:29N 37°38' E 024°08'2 0.1
2015-Jul-03 19:31N 37°37' E 024°05'2223.4
2015-Jul-03 18:33N 37°46' E 023°39'1110.9
2015-Jul-03 17:34N 37°56' E 023°38'0 0.0
2015-Jul-03 16:34N 37°56' E 023°38'0 0.0
2015-Jul-03 15:33N 37°56' E 023°38'4 4.2
2015-Jul-03 14:34N 37°52' E 023°39'2522.7
2015-Jul-03 13:27N 37°38' E 024°04'8 0.4
2015-Jul-02 19:10N 37°37' E 023°54'1524.4
2015-Jul-02 18:33N 37°46' E 023°39'1110.9
2015-Jul-02 17:34N 37°56' E 023°38'0 0.0
2015-Jul-02 16:33N 37°56' E 023°38'0 0.0
2015-Jul-02 15:33N 37°56' E 023°38'0 0.0
2015-Jul-02 14:34N 37°56' E 023°38'0 0.0
2015-Jul-02 13:33N 37°56' E 023°38'0 0.0
2015-Jul-02 12:33N 37°56' E 023°38'0 0.0
2015-Jul-02 11:14N 37°56' E 023°38'0 0.0
2015-Jul-02 10:33N 37°56' E 023°38'0 0.0
2015-Jul-02 09:31N 37°56' E 023°38'0 0.0
2015-Jul-02 07:04N 37°56' E 023°38'0 0.0
2015-Jul-02 06:31N 37°56' E 023°38'0 0.0
2015-Jul-02 05:30N 37°56' E 023°38'8 8.8
2015-Jul-02 04:33N 37°48' E 023°41'3224.3
2015-Jul-02 03:15N 37°31' E 024°14'2426.2
2015-Jul-02 02:20N 37°32' E 024°44'2025.6
2015-Jul-02 01:33N 37°30' E 025°09'2625.8
2015-Jul-02 00:33N 37°37' E 025°40'2625.7
2015-Jul-01 23:33N 37°43' E 026°12'18313.7
2015-Jul-01 10:09N 40°30' E 024°33'1526.0
2015-Jul-01 09:34N 40°44' E 024°24'1212.4
2015-Jul-01 08:33N 40°56' E 024°25'0 0.0
2015-Jul-01 07:33N 40°56' E 024°25'0 0.0
2015-Jul-01 06:33N 40°56' E 024°25'1818.0
2015-Jul-01 05:33N 40°38' E 024°23'19516.2
2015-Jun-30 17:33N 37°53' E 026°36'6 5.9
2015-Jun-30 16:33N 37°48' E 026°41'2424.2
2015-Jun-30 15:33N 37°44' E 026°11'2626.1
2015-Jun-30 14:33N 37°37' E 025°40'2625.8
2015-Jun-30 13:34N 37°30' E 025°08'5125.1
2015-Jun-30 11:31N 37°34' E 024°04'2324.3
2015-Jun-30 10:34N 37°46' E 023°39'1010.0
2015-Jun-30 09:33N 37°56' E 023°38'0 0.0
2015-Jun-30 08:33N 37°56' E 023°38'0 0.0
2015-Jun-30 07:33N 37°56' E 023°38'0 0.0
2015-Jun-30 06:33N 37°56' E 023°38'0 0.0
2015-Jun-30 05:33N 37°56' E 023°38'0 0.0
2015-Jun-30 04:33N 37°56' E 023°38'0 0.0
2015-Jun-30 03:33N 37°56' E 023°38'9 9.5
2015-Jun-30 02:34N 37°48' E 023°42'2120.4
2015-Jun-30 01:33N 37°37' E 024°05'2623.0
2015-Jun-30 00:25N 37°52' E 024°31'32 1.1
2015-Jun-28 19:33N 37°33' E 023°60'2222.3
2015-Jun-28 18:33N 37°47' E 023°39'10 9.7
2015-Jun-28 17:33N 37°56' E 023°38'0 0.0
2015-Jun-28 16:33N 37°56' E 023°38'2 2.2
2015-Jun-28 15:33N 37°54' E 023°38'2322.5
2015-Jun-28 14:33N 37°38' E 023°57'6 0.3
2015-Jun-27 19:28N 37°37' E 024°05'2123.4
2015-Jun-27 18:34N 37°45' E 023°40'1111.3
2015-Jun-27 17:34N 37°56' E 023°38'0 0.0
2015-Jun-27 16:33N 37°56' E 023°38'  
Track history (hours):
 
Tides and Currents Weather Stations Pressure Air Temp Water Temp Dewpoint Dewpoint Depression Visibility Wind Speed Wind Dir Waves Ship Positions

Blue Star 1

Last reported at 2015-Jul-07 16:14 UTC. Time now 2015-Jul-08 02:15 UTC.
Position N 37°48' E 026°33'.

Length 176 m; draft 6.5 m.

Type: Passenger vessel. MMSI: 239710000.

Date/timePositionNaut miles runAvg speedWind from/ knotsBaromVisibWave heightAir tempDewpointWater temp
2015-Jul-07 16:14N 37°48' E 026°33'1825.6
2015-Jul-07 15:33N 37°44' E 026°12'2525.9
2015-Jul-07 14:34N 37°37' E 025°41'2525.3
2015-Jul-07 13:34N 37°30' E 025°10'5725.1
2015-Jul-07 11:17N 37°35' E 023°58'1825.0
2015-Jul-07 10:34N 37°45' E 023°39'1111.5
2015-Jul-07 09:33N 37°56' E 023°38'0 0.0
2015-Jul-07 08:33N 37°56' E 023°38'0 0.0
2015-Jul-07 07:33N 37°56' E 023°38'0 0.0
2015-Jul-07 06:33N 37°56' E 023°38'0 0.0
2015-Jul-07 05:33N 37°56' E 023°38'0 0.0
2015-Jul-07 04:33N 37°56' E 023°38'0 0.0
2015-Jul-07 03:33N 37°56' E 023°38'9 8.7
2015-Jul-07 02:33N 37°48' E 023°41'2120.5
2015-Jul-07 01:32N 37°38' E 024°04'3 0.1
2015-Jul-05 19:32N 37°37' E 024°01'2020.9
2015-Jul-05 18:33N 37°47' E 023°38'10 9.6
2015-Jul-05 17:34N 37°56' E 023°38'0 0.0
2015-Jul-05 16:33N 37°56' E 023°38'5 4.6
2015-Jul-05 15:33N 37°52' E 023°39'2722.9
2015-Jul-05 14:24N 37°38' E 024°07'9 0.5
2015-Jul-04 19:19N 37°38' E 023°56'1823.4
2015-Jul-04 18:33N 37°48' E 023°38'8 8.2
2015-Jul-04 17:33N 37°56' E 023°38'0 0.0
2015-Jul-04 16:33N 37°56' E 023°38'0 0.0
2015-Jul-04 15:33N 37°56' E 023°38'7 6.8
2015-Jul-04 14:33N 37°50' E 023°40'2523.2
2015-Jul-04 13:29N 37°38' E 024°08'2 0.1
2015-Jul-03 19:31N 37°37' E 024°05'2223.4
2015-Jul-03 18:33N 37°46' E 023°39'1110.9
2015-Jul-03 17:34N 37°56' E 023°38'0 0.0
2015-Jul-03 16:34N 37°56' E 023°38'0 0.0
2015-Jul-03 15:33N 37°56' E 023°38'4 4.2
2015-Jul-03 14:34N 37°52' E 023°39'2522.7
2015-Jul-03 13:27N 37°38' E 024°04'8 0.4
2015-Jul-02 19:10N 37°37' E 023°54'1524.4
2015-Jul-02 18:33N 37°46' E 023°39'1110.9
2015-Jul-02 17:34N 37°56' E 023°38'0 0.0
2015-Jul-02 16:33N 37°56' E 023°38'0 0.0
2015-Jul-02 15:33N 37°56' E 023°38'0 0.0
2015-Jul-02 14:34N 37°56' E 023°38'0 0.0
2015-Jul-02 13:33N 37°56' E 023°38'0 0.0
2015-Jul-02 12:33N 37°56' E 023°38'0 0.0
2015-Jul-02 11:14N 37°56' E 023°38'0 0.0
2015-Jul-02 10:33N 37°56' E 023°38'0 0.0
2015-Jul-02 09:31N 37°56' E 023°38'0 0.0
2015-Jul-02 07:04N 37°56' E 023°38'0 0.0
2015-Jul-02 06:31N 37°56' E 023°38'0 0.0
2015-Jul-02 05:30N 37°56' E 023°38'8 8.8
2015-Jul-02 04:33N 37°48' E 023°41'3224.3
2015-Jul-02 03:15N 37°31' E 024°14'2426.2
2015-Jul-02 02:20N 37°32' E 024°44'2025.6
2015-Jul-02 01:33N 37°30' E 025°09'2625.8
2015-Jul-02 00:33N 37°37' E 025°40'2625.7
2015-Jul-01 23:33N 37°43' E 026°12'18313.7
2015-Jul-01 10:09N 40°30' E 024°33'1526.0
2015-Jul-01 09:34N 40°44' E 024°24'1212.4
2015-Jul-01 08:33N 40°56' E 024°25'0 0.0
2015-Jul-01 07:33N 40°56' E 024°25'0 0.0
2015-Jul-01 06:33N 40°56' E 024°25'1818.0
2015-Jul-01 05:33N 40°38' E 024°23'19516.2
2015-Jun-30 17:33N 37°53' E 026°36'6 5.9
2015-Jun-30 16:33N 37°48' E 026°41'2424.2
2015-Jun-30 15:33N 37°44' E 026°11'2626.1
2015-Jun-30 14:33N 37°37' E 025°40'2625.8
2015-Jun-30 13:34N 37°30' E 025°08'5125.1
2015-Jun-30 11:31N 37°34' E 024°04'2324.3
2015-Jun-30 10:34N 37°46' E 023°39'1010.0
2015-Jun-30 09:33N 37°56' E 023°38'0 0.0
2015-Jun-30 08:33N 37°56' E 023°38'0 0.0
2015-Jun-30 07:33N 37°56' E 023°38'0 0.0
2015-Jun-30 06:33N 37°56' E 023°38'0 0.0
2015-Jun-30 05:33N 37°56' E 023°38'0 0.0
2015-Jun-30 04:33N 37°56' E 023°38'0 0.0
2015-Jun-30 03:33N 37°56' E 023°38'9 9.5
2015-Jun-30 02:34N 37°48' E 023°42'2120.4
2015-Jun-30 01:33N 37°37' E 024°05'2623.0
2015-Jun-30 00:25N 37°52' E 024°31'32 1.1
2015-Jun-28 19:33N 37°33' E 023°60'2222.3
2015-Jun-28 18:33N 37°47' E 023°39'10 9.7
2015-Jun-28 17:33N 37°56' E 023°38'0 0.0
2015-Jun-28 16:33N 37°56' E 023°38'2 2.2
2015-Jun-28 15:33N 37°54' E 023°38'2322.5
2015-Jun-28 14:33N 37°38' E 023°57'6 0.3
2015-Jun-27 19:28N 37°37' E 024°05'2123.4
2015-Jun-27 18:34N 37°45' E 023°40'1111.3
2015-Jun-27 17:34N 37°56' E 023°38'0 0.0
2015-Jun-27 16:33N 37°56' E 023°38'  

Dump ship's entire track history